Time;durP1;ratioP1;P1;durP2;ratioP2;P2;SDS_P1;SDS_P2;PMS_P1;PMS_P2;Temp;Humidity;BMP_temperature;BMP_pressure;BME280_temperature;BME280_humidity;BME280_pressure;Samples;Min_cycle;Max_cycle;Signal;HPM_P1;HPM_P2
2022/08/17 00:00:07;;;;;;;7.73;7.03;;;31.80;38.90;;;;;;5118101;28;20470;-79
2022/08/17 00:16:00;;;;;;;7.33;6.80;;;31.80;38.90;;;;;;5073308;28;20526;-82
2022/08/17 00:18:29;;;;;;;7.10;6.60;;;31.60;39.00;;;;;;5074248;28;20959;-81
2022/08/17 00:21:18;;;;;;;7.13;6.60;;;31.60;39.20;;;;;;5074085;28;20441;-83
2022/08/17 00:23:52;;;;;;;7.37;6.77;;;31.60;39.20;;;;;;5073667;28;20523;-82
2022/08/17 00:26:20;;;;;;;7.60;7.00;;;31.50;39.20;;;;;;5073477;28;20445;-82
2022/08/17 00:29:08;;;;;;;6.83;6.10;;;31.50;39.20;;;;;;5073341;28;20442;-82
2022/08/17 00:31:47;;;;;;;6.57;6.07;;;31.40;39.20;;;;;;5080617;28;20413;-83
2022/08/17 00:34:15;;;;;;;6.93;6.33;;;31.40;39.20;;;;;;5079383;28;20473;-83
2022/08/17 00:36:48;;;;;;;6.93;6.43;;;31.40;39.20;;;;;;5078801;28;20461;-82
2022/08/17 00:39:19;;;;;;;6.87;6.37;;;31.30;39.20;;;;;;5077989;28;20454;-84
2022/08/17 00:41:49;;;;;;;6.13;5.80;;;31.30;39.10;;;;;;5077269;28;20448;-85
2022/08/17 00:44:20;;;;;;;7.10;6.60;;;31.30;39.20;;;;;;5076921;28;20473;-84
2022/08/17 00:47:10;;;;;;;7.17;6.67;;;31.30;39.20;;;;;;5077015;28;20476;-82
2022/08/17 00:49:42;;;;;;;6.77;6.10;;;31.20;39.20;;;;;;5075849;28;20445;-82
2022/08/17 00:52:15;;;;;;;7.30;6.70;;;31.20;39.20;;;;;;5076989;28;20442;-82
2022/08/17 00:54:47;;;;;;;6.63;6.17;;;31.20;39.30;;;;;;5076543;28;20432;-82
2022/08/17 00:57:17;;;;;;;7.53;6.03;;;31.20;39.40;;;;;;5077816;28;20893;-82
2022/08/17 00:59:46;;;;;;;6.90;6.43;;;31.20;39.40;;;;;;5077151;28;20446;-83
2022/08/17 01:02:33;;;;;;;6.40;6.00;;;31.10;39.20;;;;;;5076635;28;20442;-82
2022/08/17 01:05:14;;;;;;;6.33;5.90;;;31.10;39.30;;;;;;5076229;28;20497;-82
2022/08/17 01:07:45;;;;;;;6.73;6.23;;;31.00;40.00;;;;;;5076933;28;20467;-83
2022/08/17 01:10:13;;;;;;;6.23;5.73;;;31.00;39.30;;;;;;5075288;28;20825;-84
2022/08/17 01:13:08;;;;;;;6.57;6.07;;;31.00;39.30;;;;;;5074590;28;20426;-84
2022/08/17 01:15:37;;;;;;;6.70;6.20;;;30.90;39.20;;;;;;5068958;28;20823;-82
2022/08/17 01:18:08;;;;;;;6.80;6.40;;;30.90;39.30;;;;;;5060196;28;20960;-82
2022/08/17 01:20:36;;;;;;;6.70;6.30;;;30.90;40.00;;;;;;5058937;28;20447;-84
2022/08/17 01:23:17;;;;;;;6.83;6.43;;;30.90;39.30;;;;;;5060906;28;20442;-84
2022/08/17 01:25:52;;;;;;;6.63;6.13;;;30.90;39.50;;;;;;5059149;28;20892;-84
2022/08/17 01:28:20;;;;;;;7.00;6.50;;;30.90;39.40;;;;;;5059488;28;20539;-84
2022/08/17 01:31:08;;;;;;;6.53;6.03;;;30.90;39.30;;;;;;5058264;28;20470;-83
2022/08/17 01:33:37;;;;;;;6.50;6.10;;;30.80;39.30;;;;;;5058095;28;20474;-82
2022/08/17 01:36:06;;;;;;;6.57;6.17;;;30.80;39.30;;;;;;5059029;28;20782;-82
2022/08/17 01:38:35;;;;;;;6.57;6.17;;;30.80;39.40;;;;;;5059301;28;20451;-82
2022/08/17 01:41:05;;;;;;;7.10;6.60;;;30.70;39.30;;;;;;5058815;28;20447;-83
2022/08/17 01:43:39;;;;;;;6.03;5.63;;;30.70;39.40;;;;;;5058381;28;20455;-83
2022/08/17 01:46:07;;;;;;;6.67;6.10;;;30.70;39.40;;;;;;5058368;28;20855;-83
2022/08/17 01:48:37;;;;;;;6.40;6.00;;;30.60;39.20;;;;;;5058212;28;20477;-82
2022/08/17 01:51:06;;;;;;;6.70;6.20;;;30.70;39.40;;;;;;5057753;28;20474;-83
2022/08/17 01:53:38;;;;;;;5.90;5.50;;;30.60;39.40;;;;;;5057950;28;20446;-83
2022/08/17 01:56:08;;;;;;;6.97;6.40;;;30.60;39.30;;;;;;5057240;28;20888;-82
2022/08/17 01:58:36;;;;;;;6.00;5.57;;;30.60;39.30;;;;;;5057367;28;20538;-82
2022/08/17 02:01:05;;;;;;;6.50;6.10;;;30.50;39.40;;;;;;5059149;28;20937;-81
2022/08/17 02:03:34;;;;;;;7.10;6.50;;;30.50;39.40;;;;;;5059042;28;20454;-81
2022/08/17 02:06:02;;;;;;;6.63;6.17;;;30.50;39.40;;;;;;5059191;28;20538;-82
2022/08/17 02:08:34;;;;;;;6.67;6.17;;;30.50;39.40;;;;;;5059614;28;20442;-82
2022/08/17 02:11:24;;;;;;;6.40;6.00;;;30.50;39.40;;;;;;5059843;28;20445;-82
2022/08/17 02:13:52;;;;;;;6.53;6.03;;;30.50;39.40;;;;;;5059751;28;20524;-83
2022/08/17 02:16:29;;;;;;;6.23;5.80;;;30.40;39.40;;;;;;5059855;28;20438;-82
2022/08/17 02:19:05;;;;;;;6.67;6.23;;;30.40;39.50;;;;;;5059413;28;20450;-82
2022/08/17 02:21:33;;;;;;;7.00;6.50;;;30.40;39.40;;;;;;5059838;28;20537;-83
2022/08/17 02:24:01;;;;;;;6.23;5.83;;;30.40;39.50;;;;;;5059971;28;20989;-82
2022/08/17 02:26:31;;;;;;;7.27;6.57;;;30.30;39.60;;;;;;5059373;28;20516;-83
2022/08/17 02:28:59;;;;;;;6.67;6.17;;;30.30;39.60;;;;;;5058810;28;20442;-83
2022/08/17 02:31:29;;;;;;;6.60;6.10;;;30.20;39.50;;;;;;5058415;28;20531;-83
2022/08/17 02:33:58;;;;;;;7.50;6.80;;;30.20;39.60;;;;;;5059159;28;20447;-83
2022/08/17 02:36:32;;;;;;;6.00;5.60;;;30.20;39.60;;;;;;5059293;28;20873;-83
2022/08/17 02:39:01;;;;;;;6.37;5.97;;;30.20;39.60;;;;;;5059290;28;20421;-83
2022/08/17 02:41:29;;;;;;;6.53;6.13;;;30.20;39.60;;;;;;5059507;28;20421;-83
2022/08/17 02:43:58;;;;;;;6.43;6.00;;;30.20;39.70;;;;;;5059098;28;20466;-83
2022/08/17 02:46:27;;;;;;;6.33;5.93;;;30.10;39.60;;;;;;5058095;28;20474;-83
2022/08/17 02:48:55;;;;;;;6.63;6.13;;;30.10;39.60;;;;;;5057878;28;20428;-83
2022/08/17 02:51:23;;;;;;;5.87;5.40;;;30.20;39.60;;;;;;5058505;28;20456;-84
2022/08/17 02:53:51;;;;;;;6.23;5.83;;;30.10;39.60;;;;;;5057343;28;20509;-83
2022/08/17 02:56:39;;;;;;;6.50;6.00;;;30.10;39.70;;;;;;5058691;28;20508;-84
2022/08/17 02:59:08;;;;;;;5.87;5.47;;;30.10;39.70;;;;;;5058006;28;20421;-84
2022/08/17 03:01:36;;;;;;;5.83;5.43;;;30.00;39.70;;;;;;5058918;28;20475;-84
2022/08/17 03:04:05;;;;;;;6.43;5.83;;;30.00;39.80;;;;;;5057835;28;20965;-84
2022/08/17 03:06:33;;;;;;;6.67;6.10;;;30.00;39.80;;;;;;5057238;28;20549;-83
2022/08/17 03:09:01;;;;;;;6.30;5.70;;;29.90;39.70;;;;;;5057716;28;20446;-83
2022/08/17 03:11:29;;;;;;;6.43;5.93;;;29.90;39.70;;;;;;5058079;28;20454;-84
2022/08/17 03:13:57;;;;;;;6.97;6.47;;;29.90;39.80;;;;;;5057393;28;20474;-84
2022/08/17 03:16:27;;;;;;;6.10;5.70;;;29.90;39.70;;;;;;5058127;28;20462;-84
2022/08/17 03:18:55;;;;;;;5.90;5.50;;;29.90;39.80;;;;;;5057873;28;20442;-83
2022/08/17 03:21:23;;;;;;;5.97;5.57;;;29.80;39.60;;;;;;5057056;28;20462;-84
2022/08/17 03:23:51;;;;;;;6.77;6.17;;;29.80;39.60;;;;;;5057254;28;20465;-83
2022/08/17 03:26:21;;;;;;;6.13;5.67;;;29.70;39.60;;;;;;5058220;28;20505;-83
2022/08/17 03:28:49;;;;;;;5.83;5.47;;;29.70;39.70;;;;;;5056682;28;20444;-83
2022/08/17 03:31:17;;;;;;;5.90;5.50;;;29.70;39.50;;;;;;5056639;28;20888;-83
2022/08/17 03:33:47;;;;;;;5.70;5.23;;;29.70;39.70;;;;;;5056285;28;20467;-84
2022/08/17 03:36:17;;;;;;;5.50;5.20;;;29.70;39.60;;;;;;5056922;28;20474;-83
2022/08/17 03:38:45;;;;;;;5.80;5.50;;;29.70;39.60;;;;;;5056536;28;20481;-84
2022/08/17 03:41:13;;;;;;;6.07;5.67;;;29.60;39.40;;;;;;5056944;28;20405;-83
2022/08/17 03:43:42;;;;;;;5.83;5.43;;;29.60;39.50;;;;;;5057227;28;20441;-84
2022/08/17 03:57:20;;;;;;;5.93;5.53;;;29.50;39.40;;;;;;5055884;28;20433;-83
2022/08/17 03:59:48;;;;;;;6.07;5.67;;;29.50;39.40;;;;;;5058275;28;20465;-83
2022/08/17 04:02:17;;;;;;;6.50;6.00;;;29.40;39.50;;;;;;5057439;28;20892;-84
2022/08/17 04:04:49;;;;;;;6.13;5.67;;;29.40;39.50;;;;;;5057005;28;20460;-83
2022/08/17 04:07:17;;;;;;;6.93;6.33;;;29.40;39.40;;;;;;5057013;28;20449;-83
2022/08/17 04:09:45;;;;;;;4.90;4.60;;;29.40;39.40;;;;;;5057020;28;20439;-83
2022/08/17 04:12:14;;;;;;;5.70;5.30;;;29.40;39.40;;;;;;5057336;28;20446;-84
2022/08/17 04:14:42;;;;;;;5.80;5.40;;;29.30;39.40;;;;;;5056683;28;20505;-84
2022/08/17 04:17:21;;;;;;;5.30;5.00;;;29.30;39.50;;;;;;5057791;28;20431;-84
2022/08/17 04:19:50;;;;;;;5.90;5.50;;;29.30;39.40;;;;;;5057540;28;20421;-83
2022/08/17 04:22:18;;;;;;;5.50;5.10;;;29.30;39.30;;;;;;5056639;28;20459;-83
2022/08/17 04:25:05;;;;;;;5.60;5.30;;;29.30;39.30;;;;;;5056855;28;21106;-84
2022/08/17 04:27:33;;;;;;;6.27;5.77;;;29.30;39.30;;;;;;5056626;28;20478;-84
2022/08/17 04:30:01;;;;;;;5.90;5.50;;;29.30;39.30;;;;;;5056670;28;20489;-83
2022/08/17 04:32:30;;;;;;;5.10;4.80;;;29.20;39.20;;;;;;5056518;28;20477;-83
2022/08/17 04:35:20;;;;;;;5.67;5.37;;;29.20;39.20;;;;;;5056426;28;20537;-83
2022/08/17 04:37:48;;;;;;;5.80;5.40;;;29.20;39.30;;;;;;5056093;28;20533;-83
2022/08/17 04:43:03;;;;;;;6.33;5.93;;;29.10;39.20;;;;;;5056671;28;20466;-83
2022/08/17 04:45:31;;;;;;;5.87;5.47;;;29.10;39.20;;;;;;5056354;28;20496;-84
2022/08/17 04:47:59;;;;;;;6.07;5.50;;;29.10;39.40;;;;;;5056534;28;20509;-83
2022/08/17 04:50:29;;;;;;;5.60;5.20;;;29.10;39.40;;;;;;5058675;28;20428;-83
2022/08/17 04:52:57;;;;;;;5.50;5.10;;;29.10;39.30;;;;;;5060974;28;20512;-84
2022/08/17 04:55:25;;;;;;;6.20;5.70;;;29.10;39.30;;;;;;5059729;28;20540;-84
2022/08/17 04:57:53;;;;;;;6.30;5.90;;;29.10;39.30;;;;;;5061150;28;20442;-84
2022/08/17 05:00:24;;;;;;;5.33;5.03;;;29.10;39.30;;;;;;5060278;28;20479;-83
2022/08/17 05:02:55;;;;;;;5.57;5.17;;;29.10;39.30;;;;;;5060535;28;20420;-84
2022/08/17 05:05:25;;;;;;;6.50;5.90;;;29.10;39.40;;;;;;5060156;28;20687;-83
2022/08/17 05:07:55;;;;;;;6.17;5.60;;;29.10;39.40;;;;;;5060407;28;20452;-83
2022/08/17 05:10:23;;;;;;;6.10;5.70;;;29.10;39.40;;;;;;5060391;28;20472;-83
2022/08/17 05:12:58;;;;;;;6.30;5.80;;;29.10;39.40;;;;;;5060162;28;20474;-84
2022/08/17 05:15:26;;;;;;;5.90;5.50;;;29.00;39.40;;;;;;5060718;28;20504;-83
2022/08/17 05:17:54;;;;;;;5.70;5.40;;;29.00;39.40;;;;;;5059962;28;20425;-83
2022/08/17 05:20:22;;;;;;;5.67;5.27;;;29.00;39.40;;;;;;5060134;28;20471;-84
2022/08/17 05:22:51;;;;;;;5.73;5.20;;;29.00;39.40;;;;;;5060171;28;20932;-84
2022/08/17 05:25:21;;;;;;;5.60;5.30;;;29.00;39.30;;;;;;5060475;28;20441;-84
2022/08/17 05:27:53;;;;;;;5.47;5.17;;;29.00;39.50;;;;;;5060826;28;20441;-84
2022/08/17 05:30:21;;;;;;;5.30;5.00;;;29.00;39.50;;;;;;5059866;28;20448;-84
2022/08/17 05:32:55;;;;;;;6.07;5.60;;;29.00;39.30;;;;;;5060773;28;20421;-84
2022/08/17 05:35:23;;;;;;;5.07;4.77;;;29.10;39.50;;;;;;5061125;28;20432;-83
2022/08/17 05:37:52;;;;;;;6.20;5.80;;;29.10;39.50;;;;;;5060326;28;20484;-83
2022/08/17 05:40:25;;;;;;;6.07;5.67;;;29.00;39.40;;;;;;5059819;28;20445;-83
2022/08/17 05:43:07;;;;;;;6.00;5.60;;;29.10;39.40;;;;;;5060791;28;20417;-83
2022/08/17 05:45:36;;;;;;;4.97;4.67;;;29.10;39.40;;;;;;5061385;28;20444;-83
2022/08/17 05:48:22;;;;;;;5.87;5.27;;;29.10;39.50;;;;;;5062061;28;20448;-84
2022/08/17 05:51:37;;;;;;;4.97;4.67;;;29.10;39.20;;;;;;5060932;28;20428;-83
2022/08/17 05:54:15;;;;;;;5.60;5.20;;;29.20;39.30;;;;;;5059588;28;20489;-83
2022/08/17 05:56:57;;;;;;;5.60;5.10;;;29.20;39.30;;;;;;5059446;28;20465;-83
2022/08/17 05:59:30;;;;;;;5.03;4.73;;;29.20;39.20;;;;;;5059740;28;20424;-83
2022/08/17 06:02:02;;;;;;;5.27;4.97;;;29.20;39.20;;;;;;5060256;28;20442;-83
2022/08/17 06:04:35;;;;;;;5.70;5.30;;;29.40;39.20;;;;;;5059742;28;20449;-83
2022/08/17 06:07:07;;;;;;;5.03;4.73;;;29.40;39.00;;;;;;5059605;28;20546;-83
2022/08/17 06:09:37;;;;;;;5.70;5.30;;;29.30;39.10;;;;;;5060499;28;20475;-83
2022/08/17 06:12:31;;;;;;;5.00;4.70;;;29.40;39.00;;;;;;5062882;28;20454;-83
2022/08/17 06:15:09;;;;;;;5.43;5.10;;;29.40;39.00;;;;;;5063340;28;20474;-83
2022/08/17 06:17:37;;;;;;;5.30;5.00;;;29.50;38.90;;;;;;5059477;28;20454;-83
2022/08/17 06:20:09;;;;;;;5.30;5.00;;;29.50;38.80;;;;;;5059456;28;20472;-83
2022/08/17 06:22:41;;;;;;;4.63;4.40;;;29.60;38.80;;;;;;5058866;28;20545;-83
2022/08/17 06:25:13;;;;;;;5.60;5.20;;;29.70;38.70;;;;;;5059736;28;20501;-83
2022/08/17 06:27:45;;;;;;;5.20;4.90;;;29.70;38.50;;;;;;5057051;28;20473;-83
2022/08/17 06:30:14;;;;;;;4.60;4.40;;;29.80;38.30;;;;;;5057009;28;20475;-83
2022/08/17 06:32:43;;;;;;;4.93;4.57;;;29.80;38.40;;;;;;5056966;28;20482;-83
2022/08/17 06:35:14;;;;;;;4.50;4.30;;;29.80;38.50;;;;;;5056601;28;20486;-82
2022/08/17 06:37:51;;;;;;;5.10;4.90;;;29.90;38.50;;;;;;5056117;28;20450;-83
2022/08/17 06:40:35;;;;;;;4.87;4.57;;;29.90;38.50;;;;;;5056770;28;20513;-83
2022/08/17 06:43:24;;;;;;;4.17;4.07;;;29.90;38.40;;;;;;5056288;28;20421;-83
2022/08/17 06:45:56;;;;;;;4.37;4.17;;;30.00;38.40;;;;;;5055890;28;20522;-83
2022/08/17 06:48:25;;;;;;;4.10;3.90;;;30.00;38.10;;;;;;5055463;28;20475;-84
2022/08/17 06:50:54;;;;;;;4.90;4.60;;;30.00;38.20;;;;;;5056230;28;20537;-84
2022/08/17 06:53:24;;;;;;;4.20;4.00;;;30.10;38.10;;;;;;5057046;28;20533;-83
2022/08/17 06:55:55;;;;;;;4.30;4.10;;;30.20;38.20;;;;;;5056552;28;20517;-83
2022/08/17 06:58:26;;;;;;;4.77;4.40;;;30.20;38.20;;;;;;5056376;28;20438;-83
2022/08/17 07:00:58;;;;;;;4.60;4.30;;;30.30;38.10;;;;;;5057588;28;20538;-83
2022/08/17 07:03:29;;;;;;;4.03;3.73;;;30.30;38.00;;;;;;5056282;28;20462;-83
2022/08/17 07:05:59;;;;;;;3.70;3.60;;;30.40;38.10;;;;;;5056180;28;20488;-83
2022/08/17 07:08:32;;;;;;;4.47;4.17;;;30.50;37.70;;;;;;5057636;28;20466;-83
2022/08/17 07:11:03;;;;;;;4.20;4.00;;;30.50;37.50;;;;;;5059937;28;20453;-83
2022/08/17 07:13:37;;;;;;;4.13;3.97;;;30.60;37.50;;;;;;5056438;28;20869;-83
2022/08/17 07:16:11;;;;;;;3.97;3.77;;;30.70;37.40;;;;;;5057573;28;20442;-84
2022/08/17 07:18:40;;;;;;;3.70;3.60;;;30.80;37.20;;;;;;5057743;28;20891;-83
2022/08/17 07:21:12;;;;;;;3.60;3.50;;;30.90;37.00;;;;;;5056932;28;20476;-83
2022/08/17 07:23:59;;;;;;;4.37;4.17;;;31.20;36.80;;;;;;5056747;28;20537;-83
2022/08/17 07:26:28;;;;;;;3.97;3.83;;;31.30;36.60;;;;;;5056048;28;20995;-83
2022/08/17 07:28:59;;;;;;;4.00;3.80;;;31.40;36.60;;;;;;5057044;28;20445;-84
2022/08/17 07:31:27;;;;;;;3.50;3.40;;;31.50;36.50;;;;;;5058392;28;20860;-84
2022/08/17 07:34:05;;;;;;;3.70;3.60;;;31.60;36.40;;;;;;5057118;28;20471;-84
2022/08/17 07:36:33;;;;;;;3.90;3.70;;;31.70;36.50;;;;;;5058076;28;20446;-84
2022/08/17 07:39:02;;;;;;;3.90;3.70;;;31.80;36.30;;;;;;5058473;28;20469;-84
2022/08/17 07:41:38;;;;;;;4.20;4.00;;;31.80;36.40;;;;;;5057739;28;20450;-84
2022/08/17 07:44:27;;;;;;;3.97;3.77;;;31.80;36.20;;;;;;5058245;28;20549;-84
2022/08/17 07:49:43;;;;;;;3.70;3.60;;;32.00;36.20;;;;;;5056112;28;20442;-83
2022/08/17 07:52:13;;;;;;;3.77;3.67;;;32.00;36.00;;;;;;5055896;28;20461;-83
2022/08/17 07:55:02;;;;;;;4.10;3.90;;;32.20;36.20;;;;;;5055851;28;20461;-82
2022/08/17 07:57:34;;;;;;;3.73;3.63;;;32.20;35.90;;;;;;5055088;28;21039;-83
2022/08/17 08:00:22;;;;;;;4.07;3.87;;;32.20;35.90;;;;;;5055197;28;20438;-83
2022/08/17 08:03:03;;;;;;;3.63;3.53;;;32.20;36.00;;;;;;5055299;28;20453;-83
2022/08/17 08:05:31;;;;;;;3.83;3.53;;;32.20;36.00;;;;;;5056011;28;20462;-83
2022/08/17 08:08:27;;;;;;;3.77;3.67;;;32.30;35.90;;;;;;5056100;28;20508;-83
2022/08/17 08:11:01;;;;;;;3.80;3.70;;;32.20;36.00;;;;;;5055210;28;20462;-83
2022/08/17 08:13:30;;;;;;;3.90;3.67;;;32.30;36.10;;;;;;5055786;28;20489;-84
2022/08/17 08:16:18;;;;;;;3.63;3.53;;;32.30;36.20;;;;;;5055630;28;20443;-83
2022/08/17 08:18:47;;;;;;;4.23;4.03;;;32.20;36.30;;;;;;5055645;28;20438;-83
2022/08/17 08:21:29;;;;;;;4.17;4.00;;;32.20;36.20;;;;;;5055061;28;20948;-82
2022/08/17 08:24:00;;;;;;;3.53;3.43;;;32.20;36.40;;;;;;5055809;28;20433;-82
2022/08/17 08:26:31;;;;;;;3.80;3.70;;;32.20;36.40;;;;;;5058124;28;20446;-81
2022/08/17 08:29:04;;;;;;;3.73;3.63;;;32.20;36.60;;;;;;5058415;28;20470;-82
2022/08/17 08:31:42;;;;;;;4.00;3.90;;;32.20;36.60;;;;;;5058963;28;20444;-81
2022/08/17 08:34:13;;;;;;;4.07;3.97;;;32.20;36.50;;;;;;5060725;28;20472;-81
2022/08/17 08:37:05;;;;;;;4.70;4.50;;;32.30;36.70;;;;;;5059213;28;20462;-82
2022/08/17 08:39:50;;;;;;;4.60;4.30;;;32.30;36.50;;;;;;5059412;28;20465;-82
2022/08/17 08:42:23;;;;;;;4.10;4.00;;;32.40;36.60;;;;;;5065215;28;20416;-81
2022/08/17 08:44:54;;;;;;;3.53;3.43;;;32.40;36.50;;;;;;5064345;28;20468;-82
2022/08/17 08:47:43;;;;;;;3.90;3.70;;;32.50;36.50;;;;;;5061764;28;20499;-82
2022/08/17 08:50:16;;;;;;;3.70;3.60;;;32.50;36.60;;;;;;5060335;28;20477;-82
2022/08/17 08:53:13;;;;;;;3.83;3.73;;;32.70;36.60;;;;;;5060397;28;20521;-82
2022/08/17 08:55:52;;;;;;;4.00;3.70;;;32.80;36.50;;;;;;5060232;28;20458;-81
2022/08/17 08:58:24;;;;;;;3.97;3.77;;;32.90;36.40;;;;;;5059267;28;20442;-82
2022/08/17 09:01:15;;;;;;;4.10;3.80;;;32.90;36.30;;;;;;5060555;28;20450;-82
2022/08/17 09:04:04;;;;;;;4.10;3.90;;;33.00;36.30;;;;;;5061999;28;20489;-82
2022/08/17 09:06:56;;;;;;;3.87;3.70;;;33.00;36.40;;;;;;5060671;28;20473;-82
2022/08/17 09:09:28;;;;;;;4.20;4.10;;;33.00;36.40;;;;;;5061456;28;20475;-82
2022/08/17 09:12:01;;;;;;;3.83;3.73;;;33.10;36.40;;;;;;5061751;28;20473;-82
2022/08/17 09:14:36;;;;;;;3.77;3.57;;;33.30;36.30;;;;;;5061355;28;20552;-82
2022/08/17 09:17:14;;;;;;;3.93;3.73;;;33.40;36.20;;;;;;5061071;28;20442;-82
2022/08/17 09:19:48;;;;;;;3.83;3.73;;;33.50;36.40;;;;;;5059980;28;20443;-82
2022/08/17 09:22:25;;;;;;;3.97;3.87;;;33.60;36.30;;;;;;5060592;28;20480;-82
2022/08/17 09:24:57;;;;;;;4.00;3.90;;;33.70;36.30;;;;;;5061006;28;20454;-82
2022/08/17 09:27:27;;;;;;;3.97;3.77;;;33.80;36.10;;;;;;5060197;28;20446;-82
2022/08/17 09:29:58;;;;;;;3.93;3.83;;;34.00;35.90;;;;;;5060403;28;20493;-82
2022/08/17 09:32:31;;;;;;;3.53;3.43;;;34.10;35.70;;;;;;5060189;28;20476;-82
2022/08/17 09:35:03;;;;;;;4.20;4.00;;;34.30;35.80;;;;;;5059643;28;20474;-82
2022/08/17 09:37:34;;;;;;;3.60;3.50;;;34.40;35.70;;;;;;5059660;28;20968;-82
2022/08/17 09:40:09;;;;;;;3.13;3.03;;;34.70;35.50;;;;;;5060112;28;20533;-82
2022/08/17 09:42:42;;;;;;;4.20;4.00;;;34.90;35.20;;;;;;5059401;28;20537;-81
2022/08/17 09:45:21;;;;;;;3.80;3.50;;;35.10;35.00;;;;;;5058640;28;20459;-81
2022/08/17 09:47:51;;;;;;;3.33;3.20;;;35.20;34.80;;;;;;5059218;28;20450;-82
2022/08/17 09:50:23;;;;;;;3.70;3.60;;;35.30;34.80;;;;;;5058915;28;20474;-82
2022/08/17 09:53:11;;;;;;;3.90;3.70;;;35.40;34.80;;;;;;5059897;28;20504;-82
2022/08/17 09:55:48;;;;;;;3.70;3.60;;;35.50;34.60;;;;;;5058592;28;20462;-83
2022/08/17 09:58:18;;;;;;;3.30;3.20;;;35.50;34.60;;;;;;5058627;28;20446;-81
2022/08/17 10:00:54;;;;;;;4.00;3.83;;;35.60;34.70;;;;;;5060436;28;20446;-82
2022/08/17 10:03:44;;;;;;;3.67;3.57;;;35.70;34.50;;;;;;5058780;28;20450;-82
2022/08/17 10:06:16;;;;;;;3.83;3.73;;;35.80;34.60;;;;;;5059359;28;20477;-82
2022/08/17 10:08:51;;;;;;;3.33;3.23;;;35.80;34.30;;;;;;5058625;28;20509;-82
2022/08/17 10:12:14;;;;;;;3.47;3.27;;;36.00;34.30;;;;;;5058706;28;20504;-82
2022/08/17 10:14:20;;;;;;;3.40;3.30;;;36.10;34.10;;;;;;5058218;28;21000;-82
2022/08/17 10:17:11;;;;;;;3.17;3.07;;;36.40;34.00;;;;;;5059079;28;20502;-83
2022/08/17 10:19:40;;;;;;;3.23;3.13;;;36.90;34.00;;;;;;5058870;28;20466;-82
2022/08/17 10:28:14;;;;;;;3.27;3.17;;;37.50;33.90;;;;;;5060298;28;20453;-81
2022/08/17 10:30:55;;;;;;;3.47;3.37;;;37.70;34.00;;;;;;5058743;28;20453;-82
2022/08/17 10:33:49;;;;;;;2.90;2.80;;;37.80;34.00;;;;;;5057685;28;20840;-83
2022/08/17 10:36:19;;;;;;;3.03;3.00;;;38.10;33.80;;;;;;5058210;28;20930;-83
2022/08/17 10:38:50;;;;;;;2.70;2.60;;;38.20;33.60;;;;;;5057944;28;20538;-82
2022/08/17 10:41:23;;;;;;;3.20;3.10;;;38.40;33.40;;;;;;5058501;28;20521;-83
2022/08/17 10:43:58;;;;;;;3.20;3.10;;;38.50;33.20;;;;;;5057973;28;20754;-83
2022/08/17 10:46:53;;;;;;;3.10;3.00;;;38.70;33.20;;;;;;5057783;28;20439;-83
2022/08/17 10:49:28;;;;;;;2.70;2.70;;;38.90;32.90;;;;;;5056935;28;20488;-83
2022/08/17 10:51:57;;;;;;;3.10;3.00;;;38.90;33.00;;;;;;5057956;28;20456;-83
2022/08/17 10:54:50;;;;;;;3.00;2.90;;;38.90;33.20;;;;;;5057314;28;20470;-83
2022/08/17 10:57:38;;;;;;;3.00;2.90;;;38.80;33.30;;;;;;5043555;28;20449;-82
2022/08/17 11:00:11;;;;;;;3.33;3.23;;;38.90;32.90;;;;;;5056822;28;20501;-82
2022/08/17 11:02:44;;;;;;;2.53;2.53;;;38.90;32.70;;;;;;5057090;28;20456;-83
2022/08/17 11:05:32;;;;;;;2.90;2.90;;;38.90;32.80;;;;;;5056706;28;20466;-82
2022/08/17 11:08:38;;;;;;;3.17;3.07;;;38.80;32.90;;;;;;5056969;28;20481;-82
2022/08/17 11:11:18;;;;;;;3.10;2.93;;;38.70;33.00;;;;;;5056837;28;20472;-82
2022/08/17 11:13:49;;;;;;;3.10;3.00;;;38.70;33.00;;;;;;5056064;28;20545;-83
2022/08/17 11:16:33;;;;;;;3.20;3.10;;;38.60;33.00;;;;;;5055783;28;20446;-81
2022/08/17 11:19:31;;;;;;;3.27;3.17;;;38.60;33.10;;;;;;5055184;28;20553;-83
2022/08/17 11:22:28;;;;;;;3.13;2.93;;;38.60;33.20;;;;;;5044175;28;20515;-82
2022/08/17 11:25:11;;;;;;;2.80;2.70;;;38.70;33.00;;;;;;5033275;28;20486;-82
2022/08/17 11:27:41;;;;;;;2.90;2.80;;;39.10;32.80;;;;;;5056267;28;20525;-82
2022/08/17 11:30:12;;;;;;;3.30;3.20;;;39.60;32.20;;;;;;5055753;28;20481;-83
2022/08/17 11:32:42;;;;;;;2.87;2.77;;;39.90;31.90;;;;;;5056263;28;20453;-84
2022/08/17 11:35:31;;;;;;;2.60;2.50;;;40.30;31.30;;;;;;5055258;28;20465;-83
2022/08/17 11:38:06;;;;;;;2.90;2.80;;;41.10;30.60;;;;;;5055516;28;20500;-83
2022/08/17 11:41:02;;;;;;;2.50;2.50;;;41.40;30.00;;;;;;5055230;28;21041;-83
2022/08/17 11:44:04;;;;;;;2.63;2.60;;;41.40;30.00;;;;;;5054966;28;20466;-83
2022/08/17 11:52:35;;;;;;;2.60;2.60;;;41.10;30.40;;;;;;5055110;28;20477;-84
2022/08/17 11:55:05;;;;;;;2.87;2.87;;;41.00;30.50;;;;;;5055031;28;20549;-83
2022/08/17 11:57:59;;;;;;;2.90;2.80;;;40.90;30.60;;;;;;5055304;28;20430;-83
2022/08/17 12:00:50;;;;;;;2.73;2.73;;;41.00;30.80;;;;;;5054592;28;20509;-83
2022/08/17 12:03:53;;;;;;;2.73;2.63;;;41.00;30.60;;;;;;5055524;28;20529;-83
2022/08/17 12:06:50;;;;;;;2.83;2.83;;;40.90;30.90;;;;;;5055058;28;20529;-83
2022/08/17 12:09:19;;;;;;;2.80;2.73;;;40.80;30.80;;;;;;5050104;28;20816;-83
2022/08/17 12:11:51;;;;;;;3.27;3.17;;;40.90;30.80;;;;;;5056581;28;20476;-83
2022/08/17 12:14:40;;;;;;;3.27;3.07;;;40.90;30.80;;;;;;5055976;28;20459;-83
2022/08/17 12:17:29;;;;;;;2.50;2.50;;;40.80;31.20;;;;;;5058471;28;20506;-83
2022/08/17 12:20:13;;;;;;;2.47;2.47;;;40.90;31.00;;;;;;5056963;28;20473;-84
2022/08/17 12:22:47;;;;;;;2.97;2.83;;;41.20;30.90;;;;;;5055253;28;20506;-83
2022/08/17 12:25:17;;;;;;;3.00;3.00;;;41.70;30.50;;;;;;5055509;28;20537;-83
2022/08/17 12:27:47;;;;;;;3.10;3.00;;;42.10;29.80;;;;;;5055063;28;20442;-83
2022/08/17 12:30:34;;;;;;;2.77;2.67;;;42.30;29.50;;;;;;5054913;28;20537;-83
2022/08/17 12:33:02;;;;;;;2.40;2.40;;;42.20;29.70;;;;;;5054766;28;20465;-82
2022/08/17 12:35:33;;;;;;;2.80;2.70;;;41.90;29.90;;;;;;5053608;28;20469;-82
2022/08/17 12:38:01;;;;;;;2.73;2.63;;;41.90;29.90;;;;;;5054322;28;20863;-82
2022/08/17 12:40:31;;;;;;;2.90;2.80;;;41.50;30.10;;;;;;5054170;28;20561;-83
2022/08/17 12:43:01;;;;;;;3.07;2.97;;;41.20;30.70;;;;;;5054750;28;20532;-82
2022/08/17 12:45:30;;;;;;;3.03;2.90;;;40.80;31.10;;;;;;5054238;28;20470;-83
2022/08/17 12:48:05;;;;;;;3.20;3.10;;;40.50;31.40;;;;;;5054312;28;20473;-83
2022/08/17 12:50:35;;;;;;;3.13;3.03;;;40.20;31.80;;;;;;5054073;28;20472;-83
2022/08/17 12:53:05;;;;;;;2.80;2.70;;;40.00;32.20;;;;;;5055536;28;20442;-82
2022/08/17 12:55:36;;;;;;;3.13;3.03;;;39.70;32.40;;;;;;5056124;28;20470;-82
2022/08/17 12:58:04;;;;;;;3.30;3.20;;;39.60;32.70;;;;;;5054755;28;20438;-83
2022/08/17 13:00:33;;;;;;;3.03;2.93;;;39.40;32.90;;;;;;5054780;28;20516;-83
2022/08/17 13:03:02;;;;;;;3.30;3.20;;;39.30;33.00;;;;;;5054710;28;20497;-82
2022/08/17 13:05:33;;;;;;;3.10;3.00;;;39.20;33.30;;;;;;5054702;28;20462;-83
2022/08/17 13:08:04;;;;;;;3.40;3.30;;;39.10;33.30;;;;;;5053913;28;20478;-82
2022/08/17 13:10:34;;;;;;;3.47;3.37;;;38.90;33.50;;;;;;5054699;28;20488;-83
2022/08/17 13:13:04;;;;;;;3.87;3.77;;;38.80;33.60;;;;;;5057095;28;20473;-82
2022/08/17 13:15:35;;;;;;;3.60;3.40;;;38.80;33.80;;;;;;5058156;28;20466;-83
2022/08/17 13:18:06;;;;;;;3.17;3.10;;;38.70;33.80;;;;;;5058803;28;20470;-83
2022/08/17 13:20:34;;;;;;;3.40;3.30;;;38.60;34.10;;;;;;5059759;28;20470;-82
2022/08/17 13:23:05;;;;;;;3.43;3.33;;;38.50;34.00;;;;;;5058829;28;20472;-83
2022/08/17 13:25:39;;;;;;;3.27;3.17;;;38.40;34.10;;;;;;5058697;28;20458;-83
2022/08/17 13:28:07;;;;;;;3.63;3.53;;;38.40;34.10;;;;;;5058185;28;20481;-83
2022/08/17 13:30:35;;;;;;;3.50;3.40;;;38.30;34.30;;;;;;5058769;28;20485;-83
2022/08/17 13:33:03;;;;;;;3.50;3.40;;;38.30;34.30;;;;;;5058824;28;20481;-83
2022/08/17 13:35:43;;;;;;;3.50;3.40;;;38.30;34.40;;;;;;5059389;28;20462;-83
2022/08/17 13:38:34;;;;;;;3.50;3.40;;;38.30;34.50;;;;;;5061596;28;20450;-83
2022/08/17 13:41:06;;;;;;;3.20;3.10;;;38.40;34.60;;;;;;5059435;28;21002;-83
2022/08/17 13:43:44;;;;;;;3.67;3.47;;;38.50;34.30;;;;;;5058601;28;20446;-83
2022/08/17 13:46:17;;;;;;;3.70;3.60;;;38.90;34.10;;;;;;5060997;28;20463;-84
2022/08/17 13:48:45;;;;;;;3.83;3.73;;;39.30;33.60;;;;;;5058835;28;20529;-84
2022/08/17 13:51:24;;;;;;;3.37;3.37;;;39.30;33.50;;;;;;5059043;28;20529;-84
2022/08/17 13:54:01;;;;;;;3.47;3.27;;;39.10;33.50;;;;;;5058744;28;20538;-83
2022/08/17 13:56:45;;;;;;;3.40;3.30;;;39.00;33.50;;;;;;5058655;28;20450;-83
2022/08/17 13:59:15;;;;;;;3.60;3.50;;;38.90;33.90;;;;;;5059400;28;20458;-83
2022/08/17 14:01:44;;;;;;;3.63;3.43;;;38.80;34.10;;;;;;5059267;28;20520;-83
2022/08/17 14:04:21;;;;;;;3.70;3.50;;;38.60;34.20;;;;;;5059552;28;20473;-83
2022/08/17 14:06:53;;;;;;;3.77;3.67;;;38.50;34.40;;;;;;5059421;28;20504;-83